createdAt,value
2018-01-28T00:02:23.099Z,18.57
2018-01-28T00:07:27.100Z,21.90
2018-01-28T00:12:34.979Z,25.07
2018-01-28T00:17:44.555Z,22.27
2018-01-28T00:22:54.904Z,21.10
2018-01-28T00:28:00.835Z,21.53
2018-01-28T00:33:08.275Z,23.90
2018-01-28T00:38:17.288Z,23.00
2018-01-28T00:48:43.824Z,19.77
2018-01-28T00:53:51.997Z,18.77
2018-01-28T00:58:59.921Z,22.00
2018-01-28T01:04:08.794Z,20.10
2018-01-28T01:09:15.127Z,23.43
2018-01-28T01:14:27.642Z,19.23
2018-01-28T01:19:36.312Z,21.27
2018-01-28T01:24:46.832Z,23.17
2018-01-28T01:40:23.919Z,20.57
2018-01-28T01:45:35.501Z,22.83
2018-01-28T01:50:46.855Z,24.67
2018-01-28T01:55:56.047Z,23.90
2018-01-28T02:01:07.382Z,24.63
2018-01-28T02:06:17.379Z,21.87
2018-01-28T02:11:27.076Z,23.93
2018-01-28T02:16:33.608Z,22.50
2018-01-28T02:21:43.800Z,23.20
2018-01-28T02:32:07.725Z,23.30
2018-01-28T02:37:15.580Z,21.47
2018-01-28T02:42:25.479Z,23.07
2018-01-28T02:52:45.179Z,22.17
2018-01-28T02:57:57.405Z,24.40
2018-01-28T03:03:05.143Z,25.73
2018-01-28T03:08:16.846Z,18.90
2018-01-28T03:13:29.385Z,23.10
2018-01-28T03:18:35.855Z,22.10
2018-01-28T03:23:43.710Z,21.07
2018-01-28T03:28:49.213Z,24.20
2018-01-28T03:33:56.449Z,22.17
2018-01-28T03:39:09.181Z,24.77
2018-01-28T03:44:21.401Z,23.73
2018-01-28T03:49:27.446Z,20.67
2018-01-28T03:54:34.472Z,20.57
2018-01-28T03:59:49.494Z,25.40
2018-01-28T04:04:54.227Z,19.87
2018-01-28T04:10:07.828Z,24.03
2018-01-28T04:15:16.134Z,21.80
2018-01-28T04:20:26.686Z,23.40
2018-01-28T04:25:34.934Z,22.40
2018-01-28T04:30:45.083Z,19.87
2018-01-28T04:35:54.169Z,24.73
2018-01-28T04:41:06.540Z,21.33
2018-01-28T04:46:15.190Z,22.40
2018-01-28T04:51:32.526Z,21.87
2018-01-28T04:56:43.311Z,20.80
2018-01-28T05:02:01.108Z,21.53
2018-01-28T05:07:07.327Z,17.27
2018-01-28T05:12:13.939Z,21.97
2018-01-28T05:17:23.571Z,21.30
2018-01-28T05:22:39.421Z,22.77
2018-01-28T05:27:51.380Z,22.80
2018-01-28T05:32:58.172Z,24.83
2018-01-28T05:38:03.689Z,22.53
2018-01-28T05:43:10.109Z,21.80
2018-01-28T05:48:20.616Z,22.23
2018-01-28T05:53:30.912Z,22.83
2018-01-28T05:58:38.922Z,23.80
2018-01-28T06:03:54.120Z,22.73
2018-01-28T06:09:01.244Z,25.33
2018-01-28T06:14:18.294Z,22.63
2018-01-28T06:19:31.924Z,19.80
2018-01-28T06:29:47.307Z,21.17
2018-01-28T06:34:56.326Z,17.50
2018-01-28T06:40:01.023Z,24.20
2018-01-28T06:45:12.393Z,20.70
2018-01-28T06:50:19.637Z,20.73
2018-01-28T06:55:29.112Z,19.37
2018-01-28T07:00:36.237Z,19.23
2018-01-28T07:05:47.572Z,21.67
2018-01-28T07:10:54.911Z,22.73
2018-01-28T07:15:59.822Z,22.03
2018-01-28T07:21:03.500Z,23.40
2018-01-28T07:26:08.436Z,25.00
2018-01-28T07:31:11.597Z,23.30
2018-01-28T07:36:15.291Z,25.33
2018-01-28T07:41:18.269Z,23.83
2018-01-28T07:46:22.733Z,21.80
2018-01-28T07:51:29.883Z,23.67
2018-01-28T07:56:34.738Z,20.23
2018-01-28T08:01:48.198Z,21.40
2018-01-28T08:06:56.661Z,14.77
2018-01-28T08:12:23.207Z,16.37
2018-01-28T08:17:27.487Z,14.30
2018-01-28T08:22:39.991Z,12.93
2018-01-28T08:28:02.821Z,13.57
2018-01-28T08:33:09.612Z,15.73
2018-01-28T08:38:33.834Z,12.70
2018-01-28T08:48:51.089Z,14.03
2018-01-28T08:53:55.408Z,15.53
2018-01-28T08:59:00.616Z,14.60
2018-01-28T09:04:13.822Z,13.37
2018-01-28T09:09:21.326Z,13.40
2018-01-28T09:14:24.724Z,12.83
2018-01-28T09:19:27.967Z,13.57
2018-01-28T09:24:30.929Z,12.63
2018-01-28T09:29:34.175Z,12.30
2018-01-28T09:34:37.078Z,14.00
2018-01-28T09:39:41.111Z,10.60
2018-01-28T09:44:44.068Z,10.97
2018-01-28T09:49:46.976Z,9.20
2018-01-28T09:54:52.254Z,10.93
2018-01-28T09:59:55.376Z,10.53
2018-01-28T10:04:59.016Z,9.90
2018-01-28T10:10:03.159Z,8.97
2018-01-28T10:15:08.885Z,7.50
2018-01-28T10:20:12.649Z,9.20
2018-01-28T10:25:15.532Z,7.13
2018-01-28T10:30:20.717Z,6.37
2018-01-28T10:35:25.409Z,7.80
2018-01-28T10:40:31.481Z,7.40
2018-01-28T10:45:35.276Z,6.50
2018-01-28T10:50:45.357Z,7.03
2018-01-28T10:55:49.182Z,6.57
2018-01-28T11:00:54.243Z,5.90
2018-01-28T11:05:58.692Z,6.37
2018-01-28T11:11:03.553Z,5.67
2018-01-28T11:16:06.332Z,6.00
2018-01-28T11:21:10.403Z,6.77
2018-01-28T11:26:13.406Z,6.50
2018-01-28T11:31:17.238Z,5.83
2018-01-28T11:36:23.724Z,4.80
2018-01-28T11:41:26.846Z,4.47
2018-01-28T11:46:31.231Z,4.70
2018-01-28T11:51:34.469Z,4.00
2018-01-28T11:56:38.696Z,4.23
2018-01-28T12:01:43.493Z,3.97
2018-01-28T12:06:46.530Z,3.53
2018-01-28T12:11:50.045Z,2.77
2018-01-28T12:16:53.899Z,3.20
2018-01-28T12:21:58.611Z,3.80
2018-01-28T12:27:02.749Z,3.60
2018-01-28T12:32:08.808Z,3.00
2018-01-28T12:37:12.718Z,2.87
2018-01-28T12:42:16.344Z,2.60
2018-01-28T12:47:19.157Z,3.17
2018-01-28T12:52:23.062Z,3.00
2018-01-28T12:57:26.424Z,2.70
2018-01-28T13:02:29.895Z,2.40
2018-01-28T13:07:35.399Z,2.40
2018-01-28T13:12:39.868Z,2.53
2018-01-28T13:17:47.950Z,2.13
2018-01-28T13:22:53.090Z,2.20
2018-01-28T13:27:57.803Z,3.00
2018-01-28T13:33:02.298Z,4.00
2018-01-28T13:38:06.743Z,2.43
2018-01-28T13:43:11.308Z,2.50
2018-01-28T13:48:15.092Z,4.00
2018-01-28T13:53:18.868Z,3.83
2018-01-28T13:58:22.858Z,4.00
2018-01-28T14:03:31.475Z,5.40
2018-01-28T14:08:54.835Z,4.40
2018-01-28T14:14:03.496Z,4.00
2018-01-28T14:19:08.209Z,3.87
2018-01-28T14:24:22.333Z,3.77
2018-01-28T14:29:34.630Z,3.77
2018-01-28T14:34:39.209Z,3.40
2018-01-28T14:39:45.990Z,4.70
2018-01-28T14:44:56.524Z,3.87
2018-01-28T14:50:06.945Z,3.70
2018-01-28T14:55:11.159Z,3.73
2018-01-28T15:00:17.268Z,3.63
2018-01-28T15:05:40.126Z,3.30
2018-01-28T15:10:48.896Z,3.53
2018-01-28T15:16:00.144Z,3.07
2018-01-28T15:21:04.989Z,3.60
2018-01-28T15:26:09.608Z,3.30
2018-01-28T15:31:16.336Z,2.70
2018-01-28T15:36:23.344Z,3.47
2018-01-28T15:41:33.462Z,3.37
2018-01-28T15:46:45.792Z,3.10
2018-01-28T15:51:54.596Z,2.83
2018-01-28T15:57:00.444Z,2.43
2018-01-28T16:02:09.489Z,2.33
2018-01-28T16:07:12.416Z,2.03
2018-01-28T16:12:17.469Z,1.57
2018-01-28T16:17:24.775Z,1.33
2018-01-28T16:22:29.031Z,1.63
2018-01-28T16:27:32.890Z,2.10
2018-01-28T16:32:39.616Z,1.60
2018-01-28T16:37:47.452Z,2.63
2018-01-28T16:42:53.852Z,1.60
2018-01-28T16:48:05.994Z,2.13
2018-01-28T16:58:21.301Z,2.40
2018-01-28T17:03:25.366Z,2.00
2018-01-28T17:08:31.252Z,1.80
2018-01-28T17:13:40.445Z,2.17
2018-01-28T17:18:43.601Z,1.90
2018-01-28T17:23:46.950Z,1.90
2018-01-28T17:34:09.682Z,2.30
2018-01-28T17:39:13.046Z,2.13
2018-01-28T17:44:16.227Z,1.30
2018-01-28T17:49:19.855Z,1.77
2018-01-28T17:54:22.957Z,1.90
2018-01-28T17:59:26.671Z,4.70
2018-01-28T18:04:29.646Z,1.57
2018-01-28T18:09:34.386Z,2.37
2018-01-28T18:14:37.537Z,2.83
2018-01-28T18:19:40.836Z,2.50
2018-01-28T18:24:44.533Z,2.67
2018-01-28T18:29:47.461Z,2.20
2018-01-28T18:34:50.323Z,3.23
2018-01-28T18:39:53.261Z,2.27
2018-01-28T18:44:56.708Z,2.47
2018-01-28T18:49:59.518Z,2.57
2018-01-28T18:55:04.240Z,2.70
2018-01-28T19:00:06.981Z,2.87
2018-01-28T19:05:10.603Z,2.50
2018-01-28T19:10:16.179Z,3.10
2018-01-28T19:15:19.035Z,2.10
2018-01-28T19:20:21.976Z,2.80
2018-01-28T19:25:24.874Z,4.10
2018-01-28T19:30:28.438Z,4.70
2018-01-28T19:35:31.380Z,3.20
2018-01-28T19:40:38.054Z,2.57
2018-01-28T19:45:44.356Z,2.70
2018-01-28T19:50:48.122Z,2.40
2018-01-28T19:55:51.886Z,1.60
2018-01-28T20:00:56.408Z,1.73
2018-01-28T20:05:59.977Z,1.30
2018-01-28T20:11:02.896Z,1.57
2018-01-28T20:16:06.035Z,1.20
2018-01-28T20:26:15.966Z,1.63
2018-01-28T20:31:18.843Z,1.57
2018-01-28T20:36:22.743Z,3.00
2018-01-28T20:41:25.537Z,1.97
2018-01-28T20:46:28.758Z,2.60
2018-01-28T20:51:39.149Z,4.90
2018-01-28T20:56:44.099Z,2.80
2018-01-28T21:01:47.013Z,4.57
2018-01-28T21:06:50.192Z,4.27
2018-01-28T21:11:53.717Z,3.43
2018-01-28T21:16:57.521Z,3.00
2018-01-28T21:22:01.891Z,3.43
2018-01-28T21:27:04.579Z,3.50
2018-01-28T21:32:07.246Z,4.67
2018-01-28T21:37:10.293Z,4.87
2018-01-28T21:42:13.359Z,5.40
2018-01-28T21:47:16.309Z,5.50
2018-01-28T21:52:20.241Z,4.80
2018-01-28T21:57:23.403Z,4.73
2018-01-28T22:02:26.211Z,4.10
2018-01-28T22:07:29.216Z,3.90
2018-01-28T22:12:33.024Z,4.60
2018-01-28T22:17:36.957Z,4.50
2018-01-28T22:22:41.300Z,4.43
2018-01-28T22:27:44.450Z,4.57
2018-01-28T22:32:47.467Z,4.30
2018-01-28T22:37:50.539Z,5.60
2018-01-28T22:42:55.292Z,5.47
2018-01-28T22:47:58.647Z,5.00
2018-01-28T22:53:02.880Z,5.60
2018-01-28T22:58:06.352Z,4.80
2018-01-28T23:03:09.445Z,5.73
2018-01-28T23:08:12.984Z,4.70
2018-01-28T23:13:16.049Z,4.27
2018-01-28T23:18:19.143Z,4.97
2018-01-28T23:23:23.731Z,5.00
2018-01-28T23:28:26.796Z,4.50
2018-01-28T23:33:30.248Z,3.73
2018-01-28T23:38:35.335Z,3.53
2018-01-28T23:43:38.452Z,4.00
2018-01-28T23:48:42.669Z,4.63
2018-01-28T23:53:46.707Z,4.10
2018-01-28T23:58:50.821Z,3.80
